sensor_id;sensor_type;location;lat;lon;timestamp;P1;durP1;ratioP1;P2;durP2;ratioP2
69034;SDS011;56091;55.756;37.412;2022-11-20T00:02:50;22.30;;;8.03;;
69034;SDS011;56091;55.756;37.412;2022-11-20T00:07:54;22.45;;;8.20;;
69034;SDS011;56091;55.756;37.412;2022-11-20T00:12:54;18.87;;;7.60;;
69034;SDS011;56091;55.756;37.412;2022-11-20T00:17:55;17.45;;;6.90;;
69034;SDS011;56091;55.756;37.412;2022-11-20T00:22:58;19.13;;;6.97;;
69034;SDS011;56091;55.756;37.412;2022-11-20T00:27:58;21.03;;;7.60;;
69034;SDS011;56091;55.756;37.412;2022-11-20T00:32:59;11.88;;;4.38;;
69034;SDS011;56091;55.756;37.412;2022-11-20T00:38:00;16.57;;;6.70;;
69034;SDS011;56091;55.756;37.412;2022-11-20T00:43:01;18.05;;;7.45;;
69034;SDS011;56091;55.756;37.412;2022-11-20T00:48:01;17.83;;;7.30;;
69034;SDS011;56091;55.756;37.412;2022-11-20T00:53:05;16.08;;;6.38;;
69034;SDS011;56091;55.756;37.412;2022-11-20T00:58:06;19.30;;;7.95;;
69034;SDS011;56091;55.756;37.412;2022-11-20T01:03:06;14.67;;;5.03;;
69034;SDS011;56091;55.756;37.412;2022-11-20T01:08:07;18.50;;;7.15;;
69034;SDS011;56091;55.756;37.412;2022-11-20T01:13:08;15.03;;;7.03;;
69034;SDS011;56091;55.756;37.412;2022-11-20T01:18:28;8.57;;;3.63;;
69034;SDS011;56091;55.756;37.412;2022-11-20T01:23:32;14.50;;;4.80;;
69034;SDS011;56091;55.756;37.412;2022-11-20T01:28:34;18.98;;;7.47;;
69034;SDS011;56091;55.756;37.412;2022-11-20T01:33:35;15.33;;;6.10;;
69034;SDS011;56091;55.756;37.412;2022-11-20T01:38:36;18.37;;;7.23;;
69034;SDS011;56091;55.756;37.412;2022-11-20T01:43:37;16.85;;;6.72;;
69034;SDS011;56091;55.756;37.412;2022-11-20T01:48:39;14.63;;;5.60;;
69034;SDS011;56091;55.756;37.412;2022-11-20T01:53:54;15.45;;;6.07;;
69034;SDS011;56091;55.756;37.412;2022-11-20T01:59:01;15.97;;;6.37;;
69034;SDS011;56091;55.756;37.412;2022-11-20T02:04:04;13.48;;;5.55;;
69034;SDS011;56091;55.756;37.412;2022-11-20T02:09:07;16.50;;;6.93;;
69034;SDS011;56091;55.756;37.412;2022-11-20T02:14:08;13.77;;;5.32;;
69034;SDS011;56091;55.756;37.412;2022-11-20T02:19:15;15.30;;;5.80;;
69034;SDS011;56091;55.756;37.412;2022-11-20T02:24:22;15.35;;;6.63;;
69034;SDS011;56091;55.756;37.412;2022-11-20T02:29:27;17.47;;;6.50;;
69034;SDS011;56091;55.756;37.412;2022-11-20T02:34:35;15.27;;;6.40;;
69034;SDS011;56091;55.756;37.412;2022-11-20T02:39:36;14.30;;;5.50;;
69034;SDS011;56091;55.756;37.412;2022-11-20T02:44:37;21.00;;;6.70;;
69034;SDS011;56091;55.756;37.412;2022-11-20T02:49:37;15.27;;;6.22;;
69034;SDS011;56091;55.756;37.412;2022-11-20T02:54:38;16.33;;;6.20;;
69034;SDS011;56091;55.756;37.412;2022-11-20T02:59:40;15.60;;;5.53;;
69034;SDS011;56091;55.756;37.412;2022-11-20T03:04:43;13.53;;;5.23;;
69034;SDS011;56091;55.756;37.412;2022-11-20T03:09:44;16.63;;;6.13;;
69034;SDS011;56091;55.756;37.412;2022-11-20T03:14:44;14.23;;;5.90;;
69034;SDS011;56091;55.756;37.412;2022-11-20T03:19:45;14.73;;;5.97;;
69034;SDS011;56091;55.756;37.412;2022-11-20T03:24:46;13.75;;;5.90;;
69034;SDS011;56091;55.756;37.412;2022-11-20T03:29:47;16.70;;;6.17;;
69034;SDS011;56091;55.756;37.412;2022-11-20T03:34:48;14.77;;;6.13;;
69034;SDS011;56091;55.756;37.412;2022-11-20T03:39:49;14.30;;;5.40;;
69034;SDS011;56091;55.756;37.412;2022-11-20T03:44:50;16.20;;;6.10;;
69034;SDS011;56091;55.756;37.412;2022-11-20T03:49:50;14.80;;;5.50;;
69034;SDS011;56091;55.756;37.412;2022-11-20T03:54:51;16.37;;;6.33;;
69034;SDS011;56091;55.756;37.412;2022-11-20T03:59:52;18.05;;;6.30;;
69034;SDS011;56091;55.756;37.412;2022-11-20T04:04:53;15.40;;;5.68;;
69034;SDS011;56091;55.756;37.412;2022-11-20T04:09:53;15.13;;;5.70;;
69034;SDS011;56091;55.756;37.412;2022-11-20T04:14:54;15.43;;;6.00;;
69034;SDS011;56091;55.756;37.412;2022-11-20T04:19:55;15.13;;;5.63;;
69034;SDS011;56091;55.756;37.412;2022-11-20T04:24:56;16.27;;;5.60;;
69034;SDS011;56091;55.756;37.412;2022-11-20T04:29:57;16.25;;;5.93;;
69034;SDS011;56091;55.756;37.412;2022-11-20T04:34:57;16.40;;;6.77;;
69034;SDS011;56091;55.756;37.412;2022-11-20T04:39:58;17.50;;;6.28;;
69034;SDS011;56091;55.756;37.412;2022-11-20T04:44:59;12.85;;;5.43;;
69034;SDS011;56091;55.756;37.412;2022-11-20T04:50:00;20.20;;;5.83;;
69034;SDS011;56091;55.756;37.412;2022-11-20T04:55:01;16.55;;;6.47;;
69034;SDS011;56091;55.756;37.412;2022-11-20T05:00:03;17.33;;;6.33;;
69034;SDS011;56091;55.756;37.412;2022-11-20T05:05:05;18.60;;;6.70;;
69034;SDS011;56091;55.756;37.412;2022-11-20T05:10:06;17.67;;;7.37;;
69034;SDS011;56091;55.756;37.412;2022-11-20T05:15:07;16.23;;;6.13;;
69034;SDS011;56091;55.756;37.412;2022-11-20T05:20:08;18.33;;;7.07;;
69034;SDS011;56091;55.756;37.412;2022-11-20T05:25:10;21.55;;;6.78;;
69034;SDS011;56091;55.756;37.412;2022-11-20T05:30:14;18.13;;;6.73;;
69034;SDS011;56091;55.756;37.412;2022-11-20T05:35:15;18.17;;;6.70;;
69034;SDS011;56091;55.756;37.412;2022-11-20T05:40:16;18.07;;;6.93;;
69034;SDS011;56091;55.756;37.412;2022-11-20T05:45:16;19.55;;;7.72;;
69034;SDS011;56091;55.756;37.412;2022-11-20T05:50:20;16.27;;;6.60;;
69034;SDS011;56091;55.756;37.412;2022-11-20T05:55:21;20.05;;;7.30;;
69034;SDS011;56091;55.756;37.412;2022-11-20T06:00:22;17.50;;;7.17;;
69034;SDS011;56091;55.756;37.412;2022-11-20T06:05:23;24.00;;;7.85;;
69034;SDS011;56091;55.756;37.412;2022-11-20T06:10:24;18.73;;;8.00;;
69034;SDS011;56091;55.756;37.412;2022-11-20T06:15:24;19.73;;;8.13;;
69034;SDS011;56091;55.756;37.412;2022-11-20T06:20:25;18.05;;;7.35;;
69034;SDS011;56091;55.756;37.412;2022-11-20T06:25:26;18.83;;;7.03;;
69034;SDS011;56091;55.756;37.412;2022-11-20T06:30:27;18.48;;;7.93;;
69034;SDS011;56091;55.756;37.412;2022-11-20T06:35:28;19.43;;;7.83;;
69034;SDS011;56091;55.756;37.412;2022-11-20T06:40:29;20.15;;;7.43;;
69034;SDS011;56091;55.756;37.412;2022-11-20T06:45:29;18.80;;;7.37;;
69034;SDS011;56091;55.756;37.412;2022-11-20T06:50:30;19.00;;;7.40;;
69034;SDS011;56091;55.756;37.412;2022-11-20T06:55:36;21.10;;;8.38;;
69034;SDS011;56091;55.756;37.412;2022-11-20T07:00:37;25.17;;;8.07;;
69034;SDS011;56091;55.756;37.412;2022-11-20T07:05:38;22.33;;;8.85;;
69034;SDS011;56091;55.756;37.412;2022-11-20T07:10:40;20.23;;;7.73;;
69034;SDS011;56091;55.756;37.412;2022-11-20T07:15:41;21.10;;;9.07;;
69034;SDS011;56091;55.756;37.412;2022-11-20T07:20:41;25.33;;;8.75;;
69034;SDS011;56091;55.756;37.412;2022-11-20T07:25:42;20.67;;;8.70;;
69034;SDS011;56091;55.756;37.412;2022-11-20T07:30:49;18.30;;;8.35;;
69034;SDS011;56091;55.756;37.412;2022-11-20T07:35:58;21.97;;;8.53;;
69034;SDS011;56091;55.756;37.412;2022-11-20T07:40:59;23.08;;;9.15;;
69034;SDS011;56091;55.756;37.412;2022-11-20T07:46:01;23.67;;;8.83;;
69034;SDS011;56091;55.756;37.412;2022-11-20T07:51:04;24.95;;;10.07;;
69034;SDS011;56091;55.756;37.412;2022-11-20T07:56:05;22.53;;;9.80;;
69034;SDS011;56091;55.756;37.412;2022-11-20T08:01:06;20.83;;;9.57;;
69034;SDS011;56091;55.756;37.412;2022-11-20T08:06:08;24.87;;;9.13;;
69034;SDS011;56091;55.756;37.412;2022-11-20T08:11:09;19.15;;;8.38;;
69034;SDS011;56091;55.756;37.412;2022-11-20T08:16:29;23.40;;;9.73;;
69034;SDS011;56091;55.756;37.412;2022-11-20T08:21:38;24.80;;;9.27;;
69034;SDS011;56091;55.756;37.412;2022-11-20T08:26:41;25.20;;;9.80;;
69034;SDS011;56091;55.756;37.412;2022-11-20T08:31:42;27.20;;;10.05;;
69034;SDS011;56091;55.756;37.412;2022-11-20T08:36:43;25.10;;;9.43;;
69034;SDS011;56091;55.756;37.412;2022-11-20T08:41:46;26.13;;;10.20;;
69034;SDS011;56091;55.756;37.412;2022-11-20T08:46:49;22.07;;;9.57;;
69034;SDS011;56091;55.756;37.412;2022-11-20T08:51:50;26.38;;;10.75;;
69034;SDS011;56091;55.756;37.412;2022-11-20T08:56:53;27.70;;;10.57;;
69034;SDS011;56091;55.756;37.412;2022-11-20T09:01:54;24.30;;;10.70;;
69034;SDS011;56091;55.756;37.412;2022-11-20T09:06:55;31.20;;;10.88;;
69034;SDS011;56091;55.756;37.412;2022-11-20T09:11:56;29.93;;;10.93;;
69034;SDS011;56091;55.756;37.412;2022-11-20T09:16:57;33.95;;;12.10;;
69034;SDS011;56091;55.756;37.412;2022-11-20T09:21:57;37.00;;;12.20;;
69034;SDS011;56091;55.756;37.412;2022-11-20T09:27:03;30.20;;;11.15;;
69034;SDS011;56091;55.756;37.412;2022-11-20T09:32:05;31.65;;;10.75;;
69034;SDS011;56091;55.756;37.412;2022-11-20T09:37:06;30.97;;;10.73;;
69034;SDS011;56091;55.756;37.412;2022-11-20T09:42:11;37.17;;;11.87;;
69034;SDS011;56091;55.756;37.412;2022-11-20T09:52:58;27.98;;;10.38;;
69034;SDS011;56091;55.756;37.412;2022-11-20T09:58:25;32.17;;;12.00;;
69034;SDS011;56091;55.756;37.412;2022-11-20T10:20:01;26.30;;;9.77;;
69034;SDS011;56091;55.756;37.412;2022-11-20T10:30:20;29.42;;;10.43;;
69034;SDS011;56091;55.756;37.412;2022-11-20T10:35:32;28.42;;;9.38;;
69034;SDS011;56091;55.756;37.412;2022-11-20T10:40:39;31.02;;;10.52;;
69034;SDS011;56091;55.756;37.412;2022-11-20T10:56:14;26.20;;;9.40;;
69034;SDS011;56091;55.756;37.412;2022-11-20T11:01:20;26.63;;;8.70;;
69034;SDS011;56091;55.756;37.412;2022-11-20T11:11:29;21.10;;;7.90;;
69034;SDS011;56091;55.756;37.412;2022-11-20T11:16:33;23.40;;;7.95;;
69034;SDS011;56091;55.756;37.412;2022-11-20T11:21:35;22.10;;;8.27;;
69034;SDS011;56091;55.756;37.412;2022-11-20T11:26:50;21.52;;;9.40;;
69034;SDS011;56091;55.756;37.412;2022-11-20T11:37:27;19.52;;;8.18;;
69034;SDS011;56091;55.756;37.412;2022-11-20T11:42:41;19.88;;;8.70;;
69034;SDS011;56091;55.756;37.412;2022-11-20T11:52:58;23.83;;;8.88;;
69034;SDS011;56091;55.756;37.412;2022-11-20T12:03:38;23.95;;;8.85;;
69034;SDS011;56091;55.756;37.412;2022-11-20T12:08:51;22.58;;;8.82;;
69034;SDS011;56091;55.756;37.412;2022-11-20T12:19:24;21.73;;;8.55;;
69034;SDS011;56091;55.756;37.412;2022-11-20T12:29:53;21.13;;;7.63;;
69034;SDS011;56091;55.756;37.412;2022-11-20T12:56:24;12.48;;;4.63;;
69034;SDS011;56091;55.756;37.412;2022-11-20T13:07:15;21.45;;;8.02;;
69034;SDS011;56091;55.756;37.412;2022-11-20T13:12:20;17.02;;;7.15;;
69034;SDS011;56091;55.756;37.412;2022-11-20T13:22:47;23.85;;;8.50;;
69034;SDS011;56091;55.756;37.412;2022-11-20T13:27:50;24.45;;;8.40;;
69034;SDS011;56091;55.756;37.412;2022-11-20T13:32:58;25.05;;;9.00;;
69034;SDS011;56091;55.756;37.412;2022-11-20T13:38:07;25.90;;;9.80;;
69034;SDS011;56091;55.756;37.412;2022-11-20T13:43:19;21.05;;;9.48;;
69034;SDS011;56091;55.756;37.412;2022-11-20T13:48:44;20.95;;;9.18;;
69034;SDS011;56091;55.756;37.412;2022-11-20T13:59:05;22.00;;;8.93;;
69034;SDS011;56091;55.756;37.412;2022-11-20T14:04:21;20.48;;;7.97;;
69034;SDS011;56091;55.756;37.412;2022-11-20T14:09:31;22.33;;;8.93;;
69034;SDS011;56091;55.756;37.412;2022-11-20T14:14:33;23.45;;;10.10;;
69034;SDS011;56091;55.756;37.412;2022-11-20T14:19:39;23.65;;;9.40;;
69034;SDS011;56091;55.756;37.412;2022-11-20T14:24:42;22.48;;;9.27;;
69034;SDS011;56091;55.756;37.412;2022-11-20T14:29:43;26.27;;;9.87;;
69034;SDS011;56091;55.756;37.412;2022-11-20T14:34:47;20.95;;;8.27;;
69034;SDS011;56091;55.756;37.412;2022-11-20T14:39:51;22.70;;;9.40;;
69034;SDS011;56091;55.756;37.412;2022-11-20T14:44:57;24.58;;;8.75;;
69034;SDS011;56091;55.756;37.412;2022-11-20T14:49:59;22.67;;;9.07;;
69034;SDS011;56091;55.756;37.412;2022-11-20T14:55:04;20.17;;;8.48;;
69034;SDS011;56091;55.756;37.412;2022-11-20T15:05:12;22.02;;;8.68;;
69034;SDS011;56091;55.756;37.412;2022-11-20T15:15:32;27.27;;;9.25;;
69034;SDS011;56091;55.756;37.412;2022-11-20T15:20:36;25.47;;;8.67;;
69034;SDS011;56091;55.756;37.412;2022-11-20T15:25:38;18.45;;;8.43;;
69034;SDS011;56091;55.756;37.412;2022-11-20T15:30:40;19.70;;;8.27;;
69034;SDS011;56091;55.756;37.412;2022-11-20T15:35:41;22.90;;;9.18;;
69034;SDS011;56091;55.756;37.412;2022-11-20T15:40:42;25.20;;;9.07;;
69034;SDS011;56091;55.756;37.412;2022-11-20T15:51:02;19.37;;;7.93;;
69034;SDS011;56091;55.756;37.412;2022-11-20T15:56:11;22.55;;;8.93;;
69034;SDS011;56091;55.756;37.412;2022-11-20T16:01:14;30.47;;;10.33;;
69034;SDS011;56091;55.756;37.412;2022-11-20T16:06:16;21.17;;;8.60;;
69034;SDS011;56091;55.756;37.412;2022-11-20T16:11:17;22.63;;;8.17;;
69034;SDS011;56091;55.756;37.412;2022-11-20T16:21:21;24.73;;;9.43;;
69034;SDS011;56091;55.756;37.412;2022-11-20T16:26:31;21.02;;;8.65;;
69034;SDS011;56091;55.756;37.412;2022-11-20T16:31:32;26.60;;;9.77;;
69034;SDS011;56091;55.756;37.412;2022-11-20T16:36:33;20.48;;;8.48;;
69034;SDS011;56091;55.756;37.412;2022-11-20T16:41:34;22.53;;;10.00;;
69034;SDS011;56091;55.756;37.412;2022-11-20T16:46:36;23.20;;;9.43;;
69034;SDS011;56091;55.756;37.412;2022-11-20T16:51:38;16.17;;;7.33;;
69034;SDS011;56091;55.756;37.412;2022-11-20T16:56:39;20.95;;;8.40;;
69034;SDS011;56091;55.756;37.412;2022-11-20T17:01:39;23.07;;;8.50;;
69034;SDS011;56091;55.756;37.412;2022-11-20T17:06:42;23.85;;;9.55;;
69034;SDS011;56091;55.756;37.412;2022-11-20T17:11:43;24.43;;;8.93;;
69034;SDS011;56091;55.756;37.412;2022-11-20T17:16:44;18.60;;;7.60;;
69034;SDS011;56091;55.756;37.412;2022-11-20T17:21:46;30.17;;;9.87;;
69034;SDS011;56091;55.756;37.412;2022-11-20T17:26:47;21.17;;;8.75;;
69034;SDS011;56091;55.756;37.412;2022-11-20T17:31:48;23.13;;;9.18;;
69034;SDS011;56091;55.756;37.412;2022-11-20T17:36:49;24.40;;;8.63;;
69034;SDS011;56091;55.756;37.412;2022-11-20T17:41:50;22.42;;;8.68;;
69034;SDS011;56091;55.756;37.412;2022-11-20T17:47:11;20.17;;;8.37;;
69034;SDS011;56091;55.756;37.412;2022-11-20T17:52:12;22.15;;;8.98;;
69034;SDS011;56091;55.756;37.412;2022-11-20T17:57:13;20.23;;;8.93;;
69034;SDS011;56091;55.756;37.412;2022-11-20T18:02:33;24.63;;;9.45;;
69034;SDS011;56091;55.756;37.412;2022-11-20T18:07:34;24.27;;;9.00;;
69034;SDS011;56091;55.756;37.412;2022-11-20T18:12:37;24.75;;;9.65;;
69034;SDS011;56091;55.756;37.412;2022-11-20T18:17:38;24.60;;;9.63;;
69034;SDS011;56091;55.756;37.412;2022-11-20T18:22:38;24.33;;;8.70;;
69034;SDS011;56091;55.756;37.412;2022-11-20T18:27:39;27.13;;;9.20;;
69034;SDS011;56091;55.756;37.412;2022-11-20T18:32:40;27.92;;;9.45;;
69034;SDS011;56091;55.756;37.412;2022-11-20T18:37:42;25.20;;;10.13;;
69034;SDS011;56091;55.756;37.412;2022-11-20T18:42:42;31.77;;;10.60;;
69034;SDS011;56091;55.756;37.412;2022-11-20T18:48:16;27.00;;;9.02;;
69034;SDS011;56091;55.756;37.412;2022-11-20T18:53:16;22.63;;;8.97;;
69034;SDS011;56091;55.756;37.412;2022-11-20T18:58:17;26.58;;;9.60;;
69034;SDS011;56091;55.756;37.412;2022-11-20T19:03:21;26.77;;;10.27;;
69034;SDS011;56091;55.756;37.412;2022-11-20T19:08:22;24.45;;;9.65;;
69034;SDS011;56091;55.756;37.412;2022-11-20T19:13:22;24.57;;;9.57;;
69034;SDS011;56091;55.756;37.412;2022-11-20T19:18:23;22.90;;;8.63;;
69034;SDS011;56091;55.756;37.412;2022-11-20T19:23:26;23.80;;;8.50;;
69034;SDS011;56091;55.756;37.412;2022-11-20T19:28:30;22.88;;;8.88;;
69034;SDS011;56091;55.756;37.412;2022-11-20T19:33:35;20.55;;;8.10;;
69034;SDS011;56091;55.756;37.412;2022-11-20T19:38:38;18.98;;;7.95;;
69034;SDS011;56091;55.756;37.412;2022-11-20T19:43:43;20.27;;;8.70;;
69034;SDS011;56091;55.756;37.412;2022-11-20T19:48:52;16.80;;;7.47;;
69034;SDS011;56091;55.756;37.412;2022-11-20T19:53:53;18.23;;;7.57;;
69034;SDS011;56091;55.756;37.412;2022-11-20T19:58:56;18.15;;;7.65;;
69034;SDS011;56091;55.756;37.412;2022-11-20T20:03:58;21.67;;;8.35;;
69034;SDS011;56091;55.756;37.412;2022-11-20T20:09:06;17.58;;;6.90;;
69034;SDS011;56091;55.756;37.412;2022-11-20T20:14:12;16.65;;;7.68;;
69034;SDS011;56091;55.756;37.412;2022-11-20T20:19:15;17.60;;;7.70;;
69034;SDS011;56091;55.756;37.412;2022-11-20T20:24:16;19.42;;;7.88;;
69034;SDS011;56091;55.756;37.412;2022-11-20T20:29:17;21.50;;;8.33;;
69034;SDS011;56091;55.756;37.412;2022-11-20T20:34:23;22.48;;;8.05;;
69034;SDS011;56091;55.756;37.412;2022-11-20T20:39:28;22.67;;;8.13;;
69034;SDS011;56091;55.756;37.412;2022-11-20T20:44:32;18.80;;;8.13;;
69034;SDS011;56091;55.756;37.412;2022-11-20T20:49:52;18.40;;;8.50;;
69034;SDS011;56091;55.756;37.412;2022-11-20T20:54:53;22.90;;;9.10;;
69034;SDS011;56091;55.756;37.412;2022-11-20T20:59:54;22.40;;;9.17;;
69034;SDS011;56091;55.756;37.412;2022-11-20T21:04:55;20.60;;;8.43;;
69034;SDS011;56091;55.756;37.412;2022-11-20T21:09:55;21.27;;;8.40;;
69034;SDS011;56091;55.756;37.412;2022-11-20T21:14:56;21.73;;;8.87;;
69034;SDS011;56091;55.756;37.412;2022-11-20T21:19:57;23.95;;;9.07;;
69034;SDS011;56091;55.756;37.412;2022-11-20T21:24:58;23.07;;;8.40;;
69034;SDS011;56091;55.756;37.412;2022-11-20T21:29:59;20.15;;;7.80;;
69034;SDS011;56091;55.756;37.412;2022-11-20T21:35:00;18.55;;;7.70;;
69034;SDS011;56091;55.756;37.412;2022-11-20T21:40:03;17.63;;;7.53;;
69034;SDS011;56091;55.756;37.412;2022-11-20T21:45:04;20.88;;;8.15;;
69034;SDS011;56091;55.756;37.412;2022-11-20T21:50:08;20.20;;;8.60;;
69034;SDS011;56091;55.756;37.412;2022-11-20T21:55:10;20.42;;;8.98;;
69034;SDS011;56091;55.756;37.412;2022-11-20T22:00:12;24.20;;;8.85;;
69034;SDS011;56091;55.756;37.412;2022-11-20T22:05:14;31.58;;;10.80;;
69034;SDS011;56091;55.756;37.412;2022-11-20T22:10:17;27.63;;;10.60;;
69034;SDS011;56091;55.756;37.412;2022-11-20T22:15:22;25.17;;;9.80;;
69034;SDS011;56091;55.756;37.412;2022-11-20T22:20:28;27.05;;;9.95;;
69034;SDS011;56091;55.756;37.412;2022-11-20T22:25:29;27.95;;;10.98;;
69034;SDS011;56091;55.756;37.412;2022-11-20T22:30:30;26.50;;;9.68;;
69034;SDS011;56091;55.756;37.412;2022-11-20T22:35:33;26.95;;;9.85;;
69034;SDS011;56091;55.756;37.412;2022-11-20T22:40:34;26.07;;;10.00;;
69034;SDS011;56091;55.756;37.412;2022-11-20T22:45:35;24.42;;;9.27;;
69034;SDS011;56091;55.756;37.412;2022-11-20T22:50:36;23.23;;;8.90;;
69034;SDS011;56091;55.756;37.412;2022-11-20T22:55:36;26.47;;;9.87;;
69034;SDS011;56091;55.756;37.412;2022-11-20T23:00:37;22.65;;;8.35;;
69034;SDS011;56091;55.756;37.412;2022-11-20T23:05:38;26.40;;;9.27;;
69034;SDS011;56091;55.756;37.412;2022-11-20T23:10:39;24.45;;;9.25;;
69034;SDS011;56091;55.756;37.412;2022-11-20T23:15:40;26.90;;;9.50;;
69034;SDS011;56091;55.756;37.412;2022-11-20T23:20:40;26.50;;;10.23;;
69034;SDS011;56091;55.756;37.412;2022-11-20T23:25:41;25.23;;;9.68;;
69034;SDS011;56091;55.756;37.412;2022-11-20T23:30:44;25.77;;;9.77;;
69034;SDS011;56091;55.756;37.412;2022-11-20T23:35:46;25.65;;;9.68;;
69034;SDS011;56091;55.756;37.412;2022-11-20T23:40:48;27.13;;;9.80;;
69034;SDS011;56091;55.756;37.412;2022-11-20T23:45:50;28.30;;;9.73;;
69034;SDS011;56091;55.756;37.412;2022-11-20T23:50:53;26.43;;;10.00;;
69034;SDS011;56091;55.756;37.412;2022-11-20T23:55:55;25.48;;;8.90;;
